Time;durP1;ratioP1;P1;durP2;ratioP2;P2;SDS_P1;SDS_P2;PMS_P1;PMS_P2;Temp;Humidity;BMP_temperature;BMP_pressure;BME280_temperature;BME280_humidity;BME280_pressure;Samples;Min_cycle;Max_cycle;Signal;HPM_P1;HPM_P2
2023/04/25 00:02:18;;;;;;;4.85;2.35;;;;;;;10.25;100.00;93894.53;5142480;27;20218;-74
2023/04/25 00:04:44;;;;;;;9.00;3.53;;;;;;;10.29;100.00;93895.41;5138703;27;20204;-74
2023/04/25 00:07:11;;;;;;;3.97;2.33;;;;;;;10.18;100.00;93883.47;5142611;27;20245;-74
2023/04/25 00:09:39;;;;;;;5.53;3.10;;;;;;;10.29;100.00;93871.06;5145825;27;20201;-74
2023/04/25 00:12:07;;;;;;;3.63;2.72;;;;;;;10.23;100.00;93869.72;5141810;27;20312;-74
2023/04/25 00:14:35;;;;;;;3.92;2.50;;;;;;;10.30;100.00;93856.38;5147678;27;20201;-75
2023/04/25 00:17:02;;;;;;;3.30;2.28;;;;;;;10.32;100.00;93854.13;5142833;27;20249;-75
2023/04/25 00:19:29;;;;;;;2.53;2.00;;;;;;;10.26;100.00;93847.38;5138552;27;20192;-74
2023/04/25 00:21:56;;;;;;;5.22;2.40;;;;;;;10.36;100.00;93849.59;5140678;27;20300;-74
2023/04/25 00:24:23;;;;;;;3.13;1.98;;;;;;;10.38;100.00;93839.22;5145215;27;20265;-75
2023/04/25 00:26:51;;;;;;;4.03;2.33;;;;;;;10.43;100.00;93830.84;5130802;27;20285;-75
2023/04/25 00:29:17;;;;;;;1.65;1.42;;;;;;;10.37;100.00;93821.41;5136396;27;20208;-75
2023/04/25 00:31:44;;;;;;;3.33;1.80;;;;;;;10.25;100.00;93816.81;5139603;27;20270;-75
2023/04/25 00:34:11;;;;;;;5.03;3.17;;;;;;;10.26;100.00;93821.09;5145000;27;20315;-77
2023/04/25 00:36:38;;;;;;;4.45;2.95;;;;;;;10.17;100.00;93811.53;5143521;27;20287;-76
2023/04/25 00:39:06;;;;;;;4.82;3.00;;;;;;;10.11;100.00;93819.13;5132097;27;20243;-78
2023/04/25 00:41:33;;;;;;;4.75;2.97;;;;;;;10.10;100.00;93827.56;5144015;27;20284;-76
2023/04/25 00:44:03;;;;;;;5.00;2.95;;;;;;;10.00;100.00;93834.25;5126978;27;20299;-76
2023/04/25 00:46:30;;;;;;;6.40;3.53;;;;;;;9.96;100.00;93812.53;5144893;27;20408;-76
2023/04/25 00:48:57;;;;;;;7.40;3.92;;;;;;;9.95;100.00;93826.38;5138031;27;20204;-76
2023/04/25 00:51:24;;;;;;;5.70;3.70;;;;;;;9.91;100.00;93820.88;5138179;27;20231;-76
2023/04/25 00:53:52;;;;;;;4.38;2.70;;;;;;;9.89;100.00;93823.13;5144193;27;20323;-76
2023/04/25 00:56:19;;;;;;;4.63;3.35;;;;;;;9.94;100.00;93809.38;5144997;27;20211;-76
2023/04/25 00:58:46;;;;;;;5.93;3.33;;;;;;;9.91;100.00;93815.47;5135763;27;20200;-76
2023/04/25 01:01:14;;;;;;;2.15;1.70;;;;;;;9.87;100.00;93819.97;5131982;27;20320;-76
2023/04/25 01:03:41;;;;;;;8.52;4.28;;;;;;;9.83;100.00;93835.31;5151333;27;20291;-76
2023/04/25 01:06:09;;;;;;;6.25;4.28;;;;;;;9.78;100.00;93835.56;5137661;27;20200;-76
2023/04/25 01:08:38;;;;;;;7.80;4.20;;;;;;;9.83;100.00;93834.53;5142629;27;20253;-76
2023/04/25 01:11:05;;;;;;;6.35;4.07;;;;;;;9.81;100.00;93805.13;5144447;27;20224;-76
2023/04/25 01:13:32;;;;;;;11.02;4.88;;;;;;;9.81;100.00;93810.53;5139753;27;20245;-77
2023/04/25 01:15:59;;;;;;;11.88;4.10;;;;;;;9.92;100.00;93806.22;5134958;27;20197;-77
2023/04/25 01:18:28;;;;;;;6.47;3.97;;;;;;;10.02;100.00;93798.72;5130325;27;20582;-77
2023/04/25 01:20:55;;;;;;;8.55;4.72;;;;;;;10.03;100.00;93784.84;5144204;27;20301;-76
2023/04/25 01:23:23;;;;;;;7.18;4.32;;;;;;;10.03;100.00;93775.97;5140554;27;20196;-77
2023/04/25 01:25:51;;;;;;;4.50;3.20;;;;;;;9.95;100.00;93781.19;5133672;27;20212;-77
2023/04/25 01:28:19;;;;;;;2.33;1.88;;;;;;;9.93;100.00;93785.34;5129880;27;20201;-76
2023/04/25 01:30:47;;;;;;;3.53;2.22;;;;;;;9.83;100.00;93778.53;5143551;27;20215;-76
2023/04/25 01:33:16;;;;;;;10.63;4.43;;;;;;;9.69;100.00;93791.63;5141306;27;20196;-77
2023/04/25 01:35:43;;;;;;;6.10;3.58;;;;;;;9.64;100.00;93794.56;5146190;27;20667;-77
2023/04/25 01:38:12;;;;;;;6.65;3.75;;;;;;;9.67;100.00;93809.31;5130265;27;20667;-77
2023/04/25 01:40:42;;;;;;;7.57;4.43;;;;;;;9.66;100.00;93808.53;5134862;27;20292;-77
2023/04/25 01:43:11;;;;;;;9.35;4.30;;;;;;;9.79;100.00;93810.09;5137966;27;20413;-78
2023/04/25 01:45:40;;;;;;;5.28;3.65;;;;;;;9.70;100.00;93805.94;5129658;27;20205;-78
2023/04/25 01:48:08;;;;;;;7.05;4.13;;;;;;;9.70;100.00;93804.03;5130453;27;20204;-77
2023/04/25 01:50:34;;;;;;;7.97;4.00;;;;;;;9.74;100.00;93802.19;5136694;27;20196;-77
2023/04/25 01:53:02;;;;;;;6.15;4.05;;;;;;;9.70;100.00;93809.44;5136098;27;20229;-76
2023/04/25 01:55:29;;;;;;;6.57;3.58;;;;;;;9.79;100.00;93818.19;5130099;27;20308;-78
2023/04/25 01:57:58;;;;;;;7.18;3.85;;;;;;;9.79;100.00;93823.59;5139118;27;20193;-77
2023/04/25 02:00:25;;;;;;;6.00;3.95;;;;;;;9.76;100.00;93824.28;5150174;27;20200;-78
2023/04/25 02:02:53;;;;;;;6.88;4.40;;;;;;;9.77;100.00;93825.06;5135363;27;20205;-77
2023/04/25 02:05:20;;;;;;;11.38;4.70;;;;;;;9.85;100.00;93814.09;5129542;27;20624;-77
2023/04/25 02:07:48;;;;;;;6.60;3.90;;;;;;;9.68;100.00;93795.47;5143179;27;20650;-76
2023/04/25 02:10:14;;;;;;;4.82;3.47;;;;;;;9.70;100.00;93803.25;5137574;27;20200;-78
2023/04/25 02:12:41;;;;;;;9.10;4.93;;;;;;;9.76;100.00;93794.53;5135973;27;20308;-77
2023/04/25 02:15:10;;;;;;;7.13;4.35;;;;;;;9.74;100.00;93810.31;5141433;27;20205;-76
2023/04/25 02:17:37;;;;;;;5.63;3.72;;;;;;;9.75;100.00;93801.06;5143538;27;20207;-78
2023/04/25 02:20:05;;;;;;;5.85;4.03;;;;;;;9.55;100.00;93781.19;5138709;27;20199;-76
2023/04/25 02:22:33;;;;;;;7.03;4.10;;;;;;;9.56;100.00;93781.97;5135213;27;20299;-76
2023/04/25 02:25:00;;;;;;;6.50;4.05;;;;;;;9.59;100.00;93776.66;5141080;27;20707;-77
2023/04/25 02:27:27;;;;;;;9.07;5.03;;;;;;;9.65;100.00;93773.72;5142908;27;20666;-77
2023/04/25 02:29:54;;;;;;;7.38;3.50;;;;;;;9.60;100.00;93772.03;5129052;27;20209;-77
2023/04/25 02:32:22;;;;;;;5.97;3.90;;;;;;;9.61;100.00;93757.38;5129111;27;20318;-77
2023/04/25 02:34:49;;;;;;;5.70;3.60;;;;;;;9.47;100.00;93767.78;5138976;27;20757;-78
2023/04/25 02:37:16;;;;;;;6.97;4.75;;;;;;;9.49;100.00;93755.50;5135896;27;20655;-78
2023/04/25 02:39:42;;;;;;;10.15;4.80;;;;;;;9.31;100.00;93765.00;5139431;27;20201;-78
2023/04/25 02:42:09;;;;;;;9.30;5.18;;;;;;;9.30;100.00;93762.63;5132164;27;20208;-78
2023/04/25 02:44:36;;;;;;;8.15;5.18;;;;;;;9.35;100.00;93765.13;5139180;27;20196;-78
2023/04/25 02:47:03;;;;;;;7.55;4.60;;;;;;;9.20;100.00;93770.09;5142321;27;20209;-77
2023/04/25 02:49:31;;;;;;;5.80;3.92;;;;;;;9.08;100.00;93767.41;5138901;27;20296;-76
2023/04/25 02:51:58;;;;;;;8.93;4.80;;;;;;;9.12;100.00;93779.13;5135240;27;20235;-76
2023/04/25 02:54:25;;;;;;;9.77;3.85;;;;;;;9.06;100.00;93758.06;5149090;27;20228;-78
2023/04/25 02:56:52;;;;;;;9.30;4.43;;;;;;;9.15;100.00;93753.34;5144113;27;20207;-77
2023/04/25 02:59:19;;;;;;;8.90;4.78;;;;;;;9.06;100.00;93750.75;5141542;27;20298;-77
2023/04/25 03:01:46;;;;;;;8.70;4.05;;;;;;;9.12;100.00;93744.00;5129725;27;20208;-77
2023/04/25 03:04:13;;;;;;;6.45;4.20;;;;;;;9.19;100.00;93749.59;5141184;27;20888;-79
2023/04/25 03:06:41;;;;;;;7.00;4.35;;;;;;;9.19;100.00;93741.50;5143737;27;20867;-77
2023/04/25 03:09:08;;;;;;;7.32;4.38;;;;;;;9.08;100.00;93740.38;5141564;27;20204;-77
2023/04/25 03:11:34;;;;;;;10.63;6.63;;;;;;;9.09;100.00;93747.38;5134702;27;20733;-78
2023/04/25 03:14:01;;;;;;;9.55;6.00;;;;;;;9.08;100.00;93740.38;5136311;27;20286;-77
2023/04/25 03:16:28;;;;;;;8.27;4.80;;;;;;;9.14;100.00;93738.25;5148555;27;20200;-78
2023/04/25 03:18:55;;;;;;;7.70;4.80;;;;;;;9.14;100.00;93747.16;5149365;27;20211;-77
2023/04/25 03:21:22;;;;;;;9.20;4.57;;;;;;;9.06;100.00;93737.22;5135045;27;20224;-77
2023/04/25 03:23:50;;;;;;;12.05;3.20;;;;;;;9.01;100.00;93744.78;5135703;27;20201;-77
2023/04/25 03:26:17;;;;;;;7.28;3.38;;;;;;;8.95;100.00;93743.44;5135831;27;20204;-77
2023/04/25 03:28:44;;;;;;;9.70;5.80;;;;;;;8.98;100.00;93743.56;5135370;27;20565;-78
2023/04/25 03:31:10;;;;;;;8.73;4.25;;;;;;;8.99;100.00;93741.66;5135318;27;20223;-77
2023/04/25 03:33:37;;;;;;;7.00;3.10;;;;;;;9.03;100.00;93737.91;5135265;27;20221;-77
2023/04/25 03:36:04;;;;;;;8.43;4.28;;;;;;;9.08;100.00;93739.59;5149596;27;20260;-77
2023/04/25 03:38:31;;;;;;;9.57;4.78;;;;;;;9.18;100.00;93733.72;5135304;27;20216;-76
2023/04/25 03:40:59;;;;;;;9.57;5.18;;;;;;;9.24;100.00;93743.19;5142088;27;20201;-77
2023/04/25 03:43:26;;;;;;;9.30;4.97;;;;;;;9.24;100.00;93756.69;5142133;27;20248;-78
2023/04/25 03:45:53;;;;;;;12.00;4.63;;;;;;;9.19;100.00;93736.09;5128318;28;20663;-77
2023/04/25 03:48:21;;;;;;;11.07;6.10;;;;;;;9.26;100.00;93730.91;5128994;27;20200;-77
2023/04/25 03:50:48;;;;;;;8.35;5.00;;;;;;;9.36;100.00;93728.84;5141193;27;20204;-76
2023/04/25 03:53:14;;;;;;;9.75;5.07;;;;;;;9.51;100.00;93730.84;5145531;27;20677;-77
2023/04/25 03:55:41;;;;;;;7.10;4.13;;;;;;;9.62;100.00;93726.53;5140481;27;20249;-76
2023/04/25 03:58:09;;;;;;;12.20;6.07;;;;;;;10.15;100.00;93716.38;5141638;27;20207;-76
2023/04/25 04:00:36;;;;;;;15.05;7.90;;;;;;;11.61;100.00;93715.19;5131726;27;20205;-76
2023/04/25 04:03:03;;;;;;;15.00;8.35;;;;;;;12.88;100.00;93718.72;5145721;27;20209;-75
2023/04/25 04:05:30;;;;;;;6.95;4.47;;;;;;;13.02;93.44;93727.09;5142118;27;20200;-74
2023/04/25 04:07:57;;;;;;;8.57;5.93;;;;;;;13.30;92.16;93722.13;5138746;27;20227;-75
2023/04/25 04:10:25;;;;;;;8.80;6.55;;;;;;;13.60;87.64;93726.81;5147407;27;20197;-74
2023/04/25 04:12:52;;;;;;;8.10;4.70;;;;;;;12.91;90.42;93726.16;5134685;27;20235;-74
2023/04/25 04:15:21;;;;;;;5.53;3.78;;;;;;;12.42;92.22;93732.31;5141690;27;20193;-74
2023/04/25 04:17:49;;;;;;;8.77;4.45;;;;;;;11.59;97.95;93733.75;5144883;27;20283;-73
2023/04/25 04:20:15;;;;;;;7.13;4.65;;;;;;;11.36;99.59;93736.34;5142269;27;20200;-75
2023/04/25 04:22:42;;;;;;;9.75;4.70;;;;;;;11.57;100.00;93744.16;5133021;27;20644;-75
2023/04/25 04:25:11;;;;;;;9.40;4.82;;;;;;;11.82;100.00;93742.78;5131048;27;20254;-74
2023/04/25 04:27:39;;;;;;;8.00;4.22;;;;;;;11.86;97.60;93738.22;5145075;27;20200;-74
2023/04/25 04:30:07;;;;;;;5.68;4.18;;;;;;;12.14;97.08;93739.94;5143604;27;20256;-74
2023/04/25 04:32:37;;;;;;;7.55;4.72;;;;;;;12.28;96.86;93738.28;5132141;27;20237;-73
2023/04/25 04:35:06;;;;;;;5.43;3.33;;;;;;;11.56;97.54;93739.88;5131035;27;20195;-72
2023/04/25 04:37:33;;;;;;;5.88;4.28;;;;;;;11.00;100.00;93735.56;5144432;27;20631;-73
2023/04/25 04:40:04;;;;;;;8.50;4.20;;;;;;;11.10;100.00;93734.22;5130574;27;20295;-73
2023/04/25 04:42:31;;;;;;;8.00;4.18;;;;;;;10.97;100.00;93725.41;5138600;27;20282;-72
2023/04/25 04:44:58;;;;;;;6.60;4.05;;;;;;;10.98;100.00;93742.44;5137319;27;20212;-72
2023/04/25 04:47:25;;;;;;;6.53;3.83;;;;;;;10.92;100.00;93733.03;5144070;27;20224;-72
2023/04/25 04:49:53;;;;;;;6.70;4.50;;;;;;;10.85;100.00;93738.28;5130956;27;20340;-74
2023/04/25 04:52:20;;;;;;;5.88;4.45;;;;;;;10.81;100.00;93743.59;5138961;27;20228;-72
2023/04/25 04:54:47;;;;;;;5.45;3.70;;;;;;;10.66;100.00;93747.88;5137219;27;20232;-71
2023/04/25 04:57:14;;;;;;;9.07;4.53;;;;;;;10.55;100.00;93743.34;5143424;27;20274;-73
2023/04/25 04:59:41;;;;;;;6.20;4.13;;;;;;;10.55;100.00;93754.94;5135338;27;20238;-74
2023/04/25 05:02:08;;;;;;;7.85;3.97;;;;;;;10.73;100.00;93757.31;5138354;27;20200;-74
2023/04/25 05:04:35;;;;;;;6.93;3.97;;;;;;;10.73;100.00;93763.53;5136819;27;20839;-74
2023/04/25 05:07:04;;;;;;;8.90;5.13;;;;;;;10.80;100.00;93757.47;5142794;27;20208;-73
2023/04/25 05:09:31;;;;;;;5.97;3.97;;;;;;;10.50;100.00;93755.22;5130658;27;20265;-74
2023/04/25 05:11:58;;;;;;;8.02;4.45;;;;;;;10.27;100.00;93768.53;5139947;27;20208;-74
2023/04/25 05:14:27;;;;;;;6.38;4.13;;;;;;;10.20;100.00;93767.56;5137009;27;20208;-73
2023/04/25 05:16:56;;;;;;;5.60;3.67;;;;;;;10.23;100.00;93780.41;5141071;27;20197;-74
2023/04/25 05:19:24;;;;;;;5.75;4.35;;;;;;;10.20;100.00;93773.00;5147714;27;20200;-73
2023/04/25 05:21:51;;;;;;;7.07;4.50;;;;;;;10.23;100.00;93783.13;5140064;27;20201;-74
2023/04/25 05:24:19;;;;;;;9.70;6.05;;;;;;;10.47;100.00;93777.56;5144497;27;20208;-74
2023/04/25 05:26:47;;;;;;;10.25;5.82;;;;;;;10.36;100.00;93773.81;5140728;27;20204;-73
2023/04/25 05:29:13;;;;;;;11.57;6.28;;;;;;;10.33;100.00;93766.38;5137247;27;20210;-73
2023/04/25 05:31:40;;;;;;;14.57;5.95;;;;;;;10.37;100.00;93766.47;5140047;27;20224;-75
2023/04/25 05:34:07;;;;;;;10.73;6.10;;;;;;;10.48;100.00;93778.38;5133083;27;20856;-73
2023/04/25 05:36:34;;;;;;;13.95;6.18;;;;;;;10.57;100.00;93777.06;5140319;27;20251;-73
2023/04/25 05:39:01;;;;;;;10.85;5.95;;;;;;;10.64;100.00;93771.06;5143737;27;20200;-73
2023/04/25 05:41:29;;;;;;;13.80;7.35;;;;;;;11.00;100.00;93767.28;5141145;27;20200;-74
2023/04/25 05:43:56;;;;;;;14.18;7.00;;;;;;;11.20;100.00;93774.34;5145421;27;20208;-73
2023/04/25 05:46:23;;;;;;;11.32;5.80;;;;;;;11.26;100.00;93774.84;5141692;27;20224;-74
2023/04/25 05:48:50;;;;;;;10.52;6.15;;;;;;;11.09;100.00;93772.50;5131399;27;20213;-74
2023/04/25 05:51:18;;;;;;;9.38;5.80;;;;;;;11.33;100.00;93764.19;5142959;27;20211;-74
2023/04/25 05:53:45;;;;;;;12.00;6.22;;;;;;;11.74;100.00;93773.63;5136676;27;20255;-74
2023/04/25 05:56:11;;;;;;;11.40;6.70;;;;;;;11.75;99.40;93775.19;5136678;27;20201;-73
2023/04/25 05:58:40;;;;;;;9.35;5.40;;;;;;;11.65;97.33;93773.00;5129968;27;20204;-73
2023/04/25 06:01:06;;;;;;;10.48;6.68;;;;;;;11.69;98.31;93771.16;5143423;27;20588;-74
2023/04/25 06:03:34;;;;;;;8.55;6.03;;;;;;;11.70;95.84;93775.44;5129607;27;20201;-72
2023/04/25 06:06:00;;;;;;;9.68;5.97;;;;;;;11.94;96.09;93772.50;5143012;27;20208;-72
2023/04/25 06:08:27;;;;;;;5.85;4.07;;;;;;;11.80;95.04;93772.19;5136318;27;20611;-72
2023/04/25 06:10:54;;;;;;;10.02;5.50;;;;;;;11.83;96.24;93771.50;5143104;27;20549;-73
2023/04/25 06:13:21;;;;;;;7.40;4.38;;;;;;;11.87;94.06;93761.50;5129194;27;20236;-73
2023/04/25 06:15:49;;;;;;;8.65;5.10;;;;;;;12.19;94.17;93764.06;5143132;27;20283;-73
2023/04/25 06:18:16;;;;;;;7.82;4.28;;;;;;;12.40;92.19;93767.19;5136078;27;20677;-72
2023/04/25 06:20:42;;;;;;;7.45;4.32;;;;;;;12.38;90.86;93774.91;5137883;27;20199;-73
2023/04/25 06:23:09;;;;;;;6.45;3.45;;;;;;;11.89;90.97;93763.88;5129289;27;20284;-73
2023/04/25 06:25:36;;;;;;;10.25;4.97;;;;;;;11.82;92.72;93769.91;5142888;27;20284;-72
2023/04/25 06:28:03;;;;;;;7.03;4.65;;;;;;;11.74;93.46;93781.75;5129182;27;20208;-73
2023/04/25 06:30:30;;;;;;;5.82;4.60;;;;;;;11.60;93.89;93784.16;5128786;27;20235;-73
2023/04/25 06:32:58;;;;;;;9.40;5.60;;;;;;;11.51;95.19;93776.19;5136778;27;20221;-74
2023/04/25 06:35:25;;;;;;;11.18;5.80;;;;;;;11.90;96.09;93765.41;5135359;27;20255;-73
2023/04/25 06:37:52;;;;;;;9.15;6.30;;;;;;;12.70;92.21;93791.81;5149652;27;20200;-72
2023/04/25 06:40:21;;;;;;;8.55;5.60;;;;;;;13.69;86.94;93765.41;5135430;27;20200;-73
2023/04/25 06:42:48;;;;;;;8.90;4.90;;;;;;;14.84;80.97;93764.47;5140323;27;20619;-73
2023/04/25 06:45:15;;;;;;;7.13;4.95;;;;;;;16.82;77.93;93764.06;5128865;27;20212;-73
2023/04/25 06:47:42;;;;;;;9.65;5.10;;;;;;;17.22;70.51;93770.38;5138346;27;20264;-73
2023/04/25 06:50:11;;;;;;;8.82;4.13;;;;;;;16.66;70.44;93771.88;5145681;27;20275;-73
2023/04/25 06:52:38;;;;;;;9.35;6.00;;;;;;;17.10;69.21;93768.00;5138713;27;20241;-74
2023/04/25 06:55:05;;;;;;;6.70;5.72;;;;;;;16.50;70.49;93768.66;5135243;27;20219;-74
2023/04/25 06:57:32;;;;;;;6.55;5.50;;;;;;;15.29;72.93;93773.44;5141007;27;20204;-73
2023/04/25 06:59:59;;;;;;;8.52;6.00;;;;;;;15.42;75.36;93766.50;5131501;27;20207;-73
2023/04/25 07:02:26;;;;;;;10.98;5.38;;;;;;;16.13;74.47;93764.19;5140009;27;20235;-73
2023/04/25 07:04:53;;;;;;;4.88;3.38;;;;;;;16.21;69.89;93757.63;5135474;27;20207;-73
2023/04/25 07:07:21;;;;;;;5.75;4.18;;;;;;;16.04;70.63;93769.25;5138388;27;20197;-73
2023/04/25 07:09:48;;;;;;;6.40;4.03;;;;;;;16.08;72.22;93763.81;5128488;28;20201;-73
2023/04/25 07:12:15;;;;;;;7.43;3.55;;;;;;;16.11;72.57;93768.50;5140351;27;20296;-73
2023/04/25 07:14:41;;;;;;;5.13;3.78;;;;;;;15.43;72.35;93776.25;5135873;27;20266;-74
2023/04/25 07:17:08;;;;;;;8.25;3.67;;;;;;;15.13;72.80;93775.63;5137739;27;20201;-74
2023/04/25 07:19:36;;;;;;;7.97;4.60;;;;;;;14.66;74.33;93779.84;5142654;27;20244;-74
2023/04/25 07:22:03;;;;;;;6.70;5.15;;;;;;;14.27;74.84;93764.97;5128523;28;20204;-73
2023/04/25 07:24:31;;;;;;;9.45;5.13;;;;;;;14.25;75.91;93759.91;5142371;27;20208;-73
2023/04/25 07:26:58;;;;;;;7.75;3.30;;;;;;;14.29;76.35;93762.69;5144831;27;20639;-74
2023/04/25 07:29:25;;;;;;;9.80;4.30;;;;;;;14.13;77.44;93763.66;5139565;27;20311;-74
2023/04/25 07:31:52;;;;;;;5.97;3.35;;;;;;;14.37;74.93;93767.81;5139858;27;20216;-72
2023/04/25 07:34:19;;;;;;;3.63;3.20;;;;;;;14.14;74.37;93764.44;5138948;27;20231;-73
2023/04/25 07:36:46;;;;;;;5.93;2.83;;;;;;;14.08;75.96;93761.25;5138885;27;20205;-73
2023/04/25 07:39:13;;;;;;;6.57;2.80;;;;;;;14.03;74.71;93767.03;5139227;27;20275;-73
2023/04/25 07:41:41;;;;;;;4.88;3.42;;;;;;;14.46;75.18;93759.41;5138677;27;20850;-73
2023/04/25 07:44:08;;;;;;;3.38;2.92;;;;;;;15.06;74.44;93745.53;5132369;27;20205;-73
2023/04/25 07:46:35;;;;;;;6.25;3.60;;;;;;;14.60;74.60;93754.09;5146317;27;20208;-73
2023/04/25 07:49:02;;;;;;;9.05;3.38;;;;;;;14.80;74.26;93747.28;5139065;27;20200;-73
2023/04/25 07:51:29;;;;;;;9.35;3.85;;;;;;;14.96;73.39;93748.97;5138503;27;20189;-74
2023/04/25 07:53:55;;;;;;;6.03;3.65;;;;;;;15.01;73.16;93756.81;5131532;27;20331;-74
2023/04/25 07:56:22;;;;;;;4.15;3.03;;;;;;;14.81;71.99;93748.84;5145865;27;20200;-73
2023/04/25 07:58:51;;;;;;;6.00;3.60;;;;;;;14.57;73.22;93738.50;5136942;27;20189;-72
2023/04/25 08:01:18;;;;;;;8.13;5.03;;;;;;;15.24;72.02;93744.53;5133190;27;20201;-72
2023/04/25 08:03:45;;;;;;;6.05;4.68;;;;;;;16.06;70.41;93739.59;5144264;27;20313;-73
2023/04/25 08:06:12;;;;;;;5.72;4.70;;;;;;;16.05;67.47;93732.56;5145505;27;20230;-73
2023/04/25 08:08:39;;;;;;;6.70;4.00;;;;;;;16.50;67.48;93738.59;5131828;27;20597;-72
2023/04/25 08:11:06;;;;;;;4.47;2.95;;;;;;;17.50;64.96;93732.03;5134268;27;20201;-74
2023/04/25 08:13:33;;;;;;;5.25;3.33;;;;;;;18.06;61.52;93724.88;5143231;27;20785;-73
2023/04/25 08:16:02;;;;;;;5.45;3.83;;;;;;;17.83;63.33;93721.84;5145574;27;20205;-74
2023/04/25 08:18:29;;;;;;;5.75;3.50;;;;;;;17.07;64.09;93725.03;5141552;27;20283;-73
2023/04/25 08:20:55;;;;;;;5.63;3.65;;;;;;;17.04;63.70;93732.84;5137921;27;20204;-73
2023/04/25 08:23:22;;;;;;;4.25;3.13;;;;;;;16.44;63.64;93731.91;5141985;27;20201;-73
2023/04/25 08:25:49;;;;;;;8.10;4.00;;;;;;;16.57;63.59;93720.22;5145369;27;20231;-74
2023/04/25 08:28:16;;;;;;;4.90;2.80;;;;;;;16.52;62.72;93715.16;5141827;27;20658;-73
2023/04/25 08:30:43;;;;;;;4.22;2.78;;;;;;;16.38;65.92;93706.91;5137930;27;20584;-73
2023/04/25 08:33:11;;;;;;;6.70;3.10;;;;;;;16.04;66.44;93709.13;5141267;27;20192;-74
2023/04/25 08:35:38;;;;;;;7.45;4.55;;;;;;;15.78;68.30;93709.41;5131289;27;20617;-73
2023/04/25 08:38:04;;;;;;;8.55;4.88;;;;;;;15.71;75.02;93717.59;5140832;27;20267;-72
2023/04/25 08:40:38;;;;;;;6.20;4.53;;;;;;;15.86;73.46;93727.38;5137739;27;20201;-73
2023/04/25 08:43:11;;;;;;;4.15;3.42;;;;;;;15.78;72.49;93729.31;5139251;27;21085;-73
2023/04/25 08:45:41;;;;;;;4.82;3.05;;;;;;;15.29;73.15;93751.59;5131010;27;20201;-74
2023/04/25 08:48:11;;;;;;;8.60;2.65;;;;;;;14.59;73.07;93733.44;5144737;27;20280;-74
2023/04/25 08:50:40;;;;;;;2.50;1.98;;;;;;;14.75;70.30;93723.09;5131353;27;20207;-74
2023/04/25 08:53:12;;;;;;;3.22;2.53;;;;;;;15.66;74.34;93726.13;5131787;27;20220;-74
2023/04/25 08:55:42;;;;;;;2.65;2.03;;;;;;;15.94;78.52;93720.81;5143037;27;20193;-74
2023/04/25 08:58:11;;;;;;;4.03;2.65;;;;;;;16.09;73.81;93711.50;5142340;27;20794;-74
2023/04/25 09:00:38;;;;;;;3.10;2.13;;;;;;;15.70;74.33;93710.56;5141583;27;20698;-75
2023/04/25 09:03:05;;;;;;;6.00;3.08;;;;;;;15.32;78.74;93707.16;5144836;27;20204;-75
2023/04/25 09:05:33;;;;;;;18.63;3.90;;;;;;;14.67;77.72;93721.44;5131133;27;20204;-76
2023/04/25 09:08:02;;;;;;;4.80;3.22;;;;;;;14.28;77.80;93714.78;5135043;27;20214;-76
2023/04/25 09:10:29;;;;;;;3.78;2.28;;;;;;;14.25;78.23;93716.31;5141288;27;20197;-77
2023/04/25 09:13:08;;;;;;;7.63;4.10;;;;;;;14.37;78.48;93715.28;5134776;27;20886;-76
2023/04/25 09:15:48;;;;;;;5.15;3.33;;;;;;;14.77;76.90;93707.13;5139099;27;20228;-76
2023/04/25 09:18:22;;;;;;;8.07;4.25;;;;;;;14.91;74.65;93703.72;5139004;27;20253;-77
2023/04/25 09:20:49;;;;;;;6.63;4.45;;;;;;;14.80;76.11;93706.38;5137256;27;20193;-76
2023/04/25 09:23:20;;;;;;;5.72;4.30;;;;;;;15.20;75.93;93705.53;5142269;27;20201;-76
2023/04/25 09:25:48;;;;;;;9.63;5.97;;;;;;;15.56;74.42;93695.66;5133022;27;20868;-76
2023/04/25 09:28:15;;;;;;;10.15;5.95;;;;;;;15.85;72.55;93701.25;5141314;27;20205;-75
2023/04/25 09:30:43;;;;;;;10.70;5.78;;;;;;;15.92;71.26;93684.91;5144224;27;20221;-76
2023/04/25 09:33:11;;;;;;;9.70;5.20;;;;;;;15.87;70.69;93699.69;5129784;27;20201;-75
2023/04/25 09:35:39;;;;;;;6.03;3.88;;;;;;;16.31;70.36;93707.66;5143692;27;20278;-74
2023/04/25 09:38:11;;;;;;;8.95;2.97;;;;;;;16.81;66.64;93696.84;5130155;27;20208;-75
2023/04/25 09:40:42;;;;;;;7.80;4.78;;;;;;;16.79;70.67;93692.97;5144166;27;20288;-75
2023/04/25 09:43:19;;;;;;;8.10;4.53;;;;;;;16.76;69.10;93702.72;5142223;27;20193;-75
2023/04/25 09:45:47;;;;;;;6.78;4.60;;;;;;;17.27;69.18;93701.56;5130057;27;20211;-74
2023/04/25 09:48:18;;;;;;;8.45;5.32;;;;;;;17.13;68.03;93696.09;5143016;27;20288;-74
2023/04/25 09:50:45;;;;;;;5.40;3.97;;;;;;;17.21;67.35;93692.19;5137469;27;20189;-75
2023/04/25 09:53:12;;;;;;;8.63;4.85;;;;;;;17.70;66.75;93686.66;5134995;27;20657;-75
2023/04/25 09:55:41;;;;;;;6.47;4.68;;;;;;;18.50;63.01;93676.91;5129640;27;20229;-75
2023/04/25 09:58:11;;;;;;;6.07;4.07;;;;;;;18.45;61.02;93676.13;5140338;27;20193;-74
2023/04/25 10:00:40;;;;;;;5.70;3.40;;;;;;;18.49;59.19;93681.59;5141563;27;20197;-73
2023/04/25 10:03:07;;;;;;;7.00;3.63;;;;;;;17.60;61.24;93686.66;5146440;27;20689;-74
2023/04/25 10:05:37;;;;;;;3.80;2.80;;;;;;;17.67;62.51;93671.00;5140075;27;20671;-73
2023/04/25 10:08:04;;;;;;;4.93;3.10;;;;;;;17.27;61.89;93680.44;5143436;27;20247;-74
2023/04/25 10:10:35;;;;;;;4.93;3.72;;;;;;;16.78;65.03;93686.72;5140548;27;20363;-74
2023/04/25 10:13:06;;;;;;;4.93;2.58;;;;;;;16.42;61.28;93680.34;5135990;27;20306;-74
2023/04/25 10:15:36;;;;;;;7.22;3.50;;;;;;;16.10;64.72;93707.63;5137768;27;20754;-73
2023/04/25 10:18:03;;;;;;;4.45;1.50;;;;;;;15.69;59.87;93714.44;5129372;27;20209;-74
2023/04/25 10:20:30;;;;;;;2.15;0.90;;;;;;;15.10;60.66;93727.28;5142702;27;20229;-74
2023/04/25 10:23:05;;;;;;;2.60;1.00;;;;;;;14.53;63.63;93704.97;5130191;27;20710;-75
2023/04/25 10:25:31;;;;;;;1.55;1.00;;;;;;;14.57;65.29;93689.44;5143154;27;20252;-74
2023/04/25 10:28:02;;;;;;;2.30;1.33;;;;;;;15.10;68.06;93694.53;5129372;27;20213;-75
2023/04/25 10:30:30;;;;;;;5.68;0.95;;;;;;;15.98;63.96;93675.19;5130156;27;20221;-74
2023/04/25 10:33:00;;;;;;;0.85;0.50;;;;;;;16.35;61.88;93672.94;5141114;27;20215;-75
2023/04/25 10:35:29;;;;;;;2.00;0.70;;;;;;;17.19;60.12;93675.38;5142635;27;20315;-74
2023/04/25 10:38:01;;;;;;;8.30;0.90;;;;;;;18.19;58.27;93664.91;5138236;27;20609;-74
2023/04/25 10:40:28;;;;;;;1.30;1.02;;;;;;;18.38;53.95;93654.25;5136183;27;20365;-74
2023/04/25 10:42:56;;;;;;;4.38;1.00;;;;;;;19.11;53.01;93651.41;5139506;27;20204;-74
2023/04/25 10:45:23;;;;;;;2.35;0.70;;;;;;;18.10;49.24;93659.88;5143468;27;20212;-76
2023/04/25 10:47:51;;;;;;;0.73;0.70;;;;;;;17.04;54.49;93669.91;5139972;27;20211;-75
2023/04/25 10:50:18;;;;;;;1.83;0.80;;;;;;;16.41;57.67;93683.47;5132226;27;20197;-75
2023/04/25 10:52:45;;;;;;;2.70;0.90;;;;;;;16.29;57.34;93682.66;5129117;27;20204;-74
2023/04/25 10:55:12;;;;;;;3.63;0.85;;;;;;;16.19;59.31;93683.44;5142762;27;20217;-74
2023/04/25 10:57:41;;;;;;;3.30;0.90;;;;;;;16.17;58.92;93691.22;5141489;27;20207;-74
2023/04/25 11:00:16;;;;;;;3.90;0.90;;;;;;;15.75;58.76;93680.13;5136064;27;20200;-76
2023/04/25 11:02:46;;;;;;;2.17;1.10;;;;;;;15.73;60.48;93682.47;5140661;27;20204;-75
2023/04/25 11:05:23;;;;;;;1.60;1.27;;;;;;;16.04;58.61;93676.34;5133618;27;20238;-74
2023/04/25 11:07:56;;;;;;;3.05;1.10;;;;;;;16.81;56.85;93674.97;5147124;27;20455;-74
2023/04/25 11:10:26;;;;;;;1.80;1.30;;;;;;;17.72;55.84;93670.59;5133185;27;20720;-75
2023/04/25 11:12:53;;;;;;;2.65;0.85;;;;;;;18.64;53.11;93663.13;5135728;27;20707;-73
2023/04/25 11:15:20;;;;;;;1.75;0.90;;;;;;;17.66;53.58;93655.75;5143389;27;20235;-75
2023/04/25 11:17:47;;;;;;;2.28;0.90;;;;;;;18.26;52.79;93651.97;5146480;27;20201;-74
2023/04/25 11:20:15;;;;;;;1.83;0.90;;;;;;;17.85;51.88;93643.56;5143667;27;20253;-74
2023/04/25 11:22:45;;;;;;;2.30;0.90;;;;;;;18.03;51.85;93654.44;5149474;27;20201;-74
2023/04/25 11:25:15;;;;;;;1.45;0.77;;;;;;;17.82;49.90;93654.50;5132406;27;20205;-73
2023/04/25 11:27:51;;;;;;;3.10;1.10;;;;;;;16.89;53.15;93667.56;5138256;27;20214;-73
2023/04/25 11:30:19;;;;;;;1.73;0.80;;;;;;;17.34;53.34;93663.22;5139706;27;20273;-74
2023/04/25 11:32:46;;;;;;;0.70;0.57;;;;;;;16.70;52.95;93663.25;5139984;27;20204;-73
2023/04/25 11:35:14;;;;;;;2.30;0.95;;;;;;;16.14;56.17;93674.81;5135136;27;20231;-71